Latest Weather Observations for Kingscote

IDS60801

Issued at 10:02 am CST Friday 28 April 2017 (issued every 30 minutes, with the page automatically refreshed every 10 minutes)

About weather observations | Map of weather stations | Latest weather observations for SA | Other Formats
Station Details ID: 022841 Name: KINGSCOTE AERO Lat: -35.71 Lon: 137.52 Height: 6.23 m
Data from the previous 72 hours. | See also: Recent months at Kingscote
Date/Time
CST
Temp
°C
App
Temp
°C
Dew
Point
°C
Rel
Hum
%
Delta-T
°C
Wind Press
QNH
hPa
Press
MSL
hPa
Rain since
9am
mm
Dir  Spd
km/h
Gust
km/h
Spd
kts
Gust
kts
28/10:00am 17.0 15.0 10.1 64 3.6 WSW 11 15 6 8 1028.3 1028.3 0.0
28/09:30am 16.7 14.6 9.6 63 3.7 WSW 11 13 6 7 1028.4 1028.4 0.0
28/09:00am 15.8 13.4 10.1 69 3.0 W 13 17 7 9 1028.3 1028.3 0.0
28/08:30am 15.1 13.3 10.7 75 2.3 W 11 15 6 8 1028.1 1028.1 0.0
28/08:00am 14.2 12.8 11.0 81 1.7 W 9 11 5 6 1027.9 1027.9 0.0
28/07:30am 13.2 11.9 11.1 87 1.1 W 9 11 5 6 1027.5 1027.5 0.0
28/07:00am 12.2 10.2 10.1 87 1.1 SW 11 13 6 7 1027.3 1027.3 0.0
28/06:30am 13.2 11.0 10.9 86 1.2 SW 13 17 7 9 1027.2 1027.2 0.0
28/06:00am 13.5 11.7 11.0 85 1.3 W 11 13 6 7 1027.0 1027.0 0.0
28/05:30am 13.2 11.5 11.3 88 1.0 WNW 11 15 6 8 1026.7 1026.7 0.0
28/05:00am 12.9 11.3 11.5 91 0.7 NW 11 13 6 7 1026.7 1026.7 0.0
28/04:30am 12.6 11.7 11.5 93 0.6 WNW 7 9 4 5 1026.6 1026.6 0.0
28/04:00am 12.6 11.7 11.5 93 0.6 NW 7 9 4 5 1026.5 1026.5 0.0
28/03:30am 12.5 11.9 11.6 94 0.5 WSW 6 7 3 4 1026.5 1026.5 0.0
28/03:00am 12.5 11.7 11.6 94 0.5 NW 7 9 4 5 1026.7 1026.7 0.0
28/02:30am 12.1 10.8 11.2 94 0.5 SSW 9 11 5 6 1027.0 1027.0 0.0
28/02:00am 12.3 12.7 11.4 94 0.5 CALM 0 0 0 0 1027.0 1027.0 0.0
28/01:30am 11.8 12.1 11.0 95 0.4 CALM 0 0 0 0 1027.0 1027.0 0.0
28/01:00am 10.9 11.0 10.0 94 0.5 CALM 0 0 0 0 1027.0 1027.0 0.0
28/12:30am 11.3 11.5 10.4 94 0.5 CALM 0 0 0 0 1027.0 1027.0 0.0
28/12:00am 11.2 11.3 10.1 93 0.6 CALM 0 0 0 0 1027.1 1027.1 0.0
 
Date/Time
CST
Temp
°C
App
Temp
°C
Dew
Point
°C
Rel
Hum
%
Delta-T
°C
Wind Press
QNH
hPa
Press
MSL
hPa
Rain since
9am
mm
Dir  Spd
km/h
Gust
km/h
Spd
kts
Gust
kts
27/11:30pm 11.7 11.9 10.6 93 0.6 CALM 0 0 0 0 1027.4 1027.4 0.0
27/11:00pm 11.4 11.6 10.5 94 0.5 CALM 0 0 0 0 1027.7 1027.7 0.0
27/10:30pm 11.4 11.5 10.3 93 0.6 CALM 0 0 0 0 1027.6 1027.6 0.0
27/10:00pm 11.3 11.4 10.2 93 0.6 CALM 0 0 0 0 1027.5 1027.5 0.0
27/09:30pm 10.6 10.4 9.0 90 0.8 CALM 0 0 0 0 1027.3 1027.3 0.0
27/09:00pm 11.8 10.6 10.2 90 0.8 WNW 7 13 4 7 1027.4 1027.4 0.0
27/08:30pm 11.9 9.9 10.0 88 1.0 WNW 11 13 6 7 1027.5 1027.5 0.0
27/08:00pm 12.7 11.6 10.8 88 1.0 W 7 7 4 4 1027.4 1027.4 0.0
27/07:30pm 12.7 11.5 10.4 86 1.2 WSW 7 7 4 4 1027.3 1027.3 0.0
27/07:00pm 13.0 11.8 10.4 84 1.3 WSW 7 9 4 5 1027.3 1027.3 0.0
27/06:30pm 12.8 11.6 10.3 85 1.3 WSW 7 11 4 6 1027.1 1027.1 0.0
27/06:00pm 12.9 11.1 9.5 80 1.7 SW 9 11 5 6 1026.9 1026.9 0.0
27/05:30pm 14.6 11.8 10.0 74 2.4 SW 15 20 8 11 1026.8 1026.8 0.0
27/05:00pm 15.8 13.1 10.3 70 2.9 SSW 15 20 8 11 1026.7 1026.7 0.0
27/04:30pm 16.4 13.9 9.8 65 3.4 WSW 13 17 7 9 1026.7 1026.7 0.0
27/04:00pm 16.1 13.3 10.0 67 3.2 WSW 15 20 8 11 1026.8 1026.8 0.0
27/03:30pm 16.4 13.2 9.8 65 3.4 SSW 17 26 9 14 1026.7 1026.7 0.0
27/03:00pm 16.5 12.9 9.9 65 3.4 SSW 19 26 10 14 1026.5 1026.5 0.0
27/02:30pm 17.5 13.8 9.4 59 4.2 SSW 19 30 10 16 1026.3 1026.3 0.0
27/02:00pm 17.0 13.0 9.2 60 4.0 SW 20 28 11 15 1026.5 1026.5 0.0
27/01:30pm 15.9 13.4 9.8 67 3.2 WSW 13 17 7 9 1026.6 1026.6 0.0
27/01:00pm 16.0 12.2 11.0 72 2.7 SW 22 33 12 18 1027.0 1027.0 0.0
27/12:30pm 16.9 13.9 9.1 60 4.0 SSW 15 20 8 11 1027.2 1027.2 0.0
27/12:00pm 16.2 12.9 9.4 64 3.5 S 17 24 9 13 1027.7 1027.7 0.0
27/11:30am 15.8 12.2 8.5 62 3.7 SW 17 32 9 17 1028.3 1028.3 0.0
27/11:00am 15.7 12.1 8.4 62 3.7 W 17 26 9 14 1028.3 1028.3 0.0
27/10:30am 15.0 11.3 9.4 69 2.9 W 19 30 10 16 1028.6 1028.6 0.0
27/10:00am 14.6 12.2 8.8 68 2.9 SW 11 15 6 8 1029.0 1029.0 0.0
27/09:30am 13.8 10.5 9.5 75 2.2 WSW 17 20 9 11 1029.2 1029.2 0.0
27/09:00am 13.3 11.5 9.5 78 1.9 WNW 9 11 5 6 1029.0 1029.0 0.0
27/08:30am 12.3 10.9 9.7 84 1.3 WNW 7 9 4 5 1028.8 1028.8 0.0
27/08:00am 11.4 11.3 9.5 88 1.0 CALM 0 0 0 0 1028.3 1028.3 0.0
27/07:30am 10.6 8.3 8.9 89 0.8 WSW 11 15 6 8 1028.1 1028.1 0.0
27/07:00am 10.4 8.1 9.0 91 0.7 W 11 15 6 8 1027.5 1027.5 0.0
27/06:30am 9.5 9.1 8.1 91 0.7 CALM 0 6 0 3 1027.4 1027.4 0.0
27/06:00am 9.2 6.6 7.8 91 0.7 WNW 11 11 6 6 1027.4 1027.4 0.0
27/05:30am 9.1 6.8 7.5 90 0.8 W 9 11 5 6 1027.2 1027.2 0.0
27/05:00am 9.0 7.0 7.0 87 0.9 W 7 11 4 6 1026.9 1026.9 0.0
27/04:30am 9.3 7.0 7.3 87 0.9 SW 9 13 5 7 1026.7 1026.7 0.0
27/04:00am 10.5 8.3 7.9 84 1.3 W 9 11 5 6 1026.3 1026.3 0.0
27/03:30am 10.6 8.0 7.8 83 1.3 W 11 13 6 7 1026.4 1026.4 0.0
27/03:00am 11.1 8.2 8.0 81 1.5 W 13 19 7 10 1026.5 1026.5 0.0
27/02:30am 11.2 8.3 8.2 82 1.5 W 13 17 7 9 1026.7 1026.7 0.0
27/02:00am 11.0 7.5 7.3 78 1.8 WSW 15 26 8 14 1026.9 1026.9 0.0
27/01:30am 10.6 8.3 7.5 81 1.5 WSW 9 13 5 7 1026.7 1026.7 0.0
27/01:00am 11.1 8.4 7.4 78 1.8 WSW 11 17 6 9 1026.7 1026.7 0.0
27/12:30am 10.2 6.5 6.4 77 1.8 WSW 15 20 8 11 1026.6 1026.6 0.0
27/12:00am 9.7 6.7 6.1 78 1.6 W 11 13 6 7 1026.3 1026.3 0.0
 
Date/Time
CST
Temp
°C
App
Temp
°C
Dew
Point
°C
Rel
Hum
%
Delta-T
°C
Wind Press
QNH
hPa
Press
MSL
hPa
Rain since
9am
mm
Dir  Spd
km/h
Gust
km/h
Spd
kts
Gust
kts
26/11:30pm 9.8 6.8 6.0 77 1.7 W 11 13 6 7 1026.3 1026.3 0.0
26/11:00pm 8.6 5.6 6.2 85 1.1 W 11 15 6 8 1026.3 1026.3 0.0
26/10:30pm 7.5 4.7 5.3 86 1.0 W 9 11 5 6 1026.3 1026.3 0.0
26/10:00pm 8.3 5.3 5.8 84 1.1 W 11 13 6 7 1026.3 1026.3 0.0
26/09:30pm 9.1 6.5 6.2 82 1.3 W 9 11 5 6 1026.2 1026.2 0.0
26/09:00pm 10.4 7.9 6.7 78 1.7 W 9 11 5 6 1025.9 1025.9 0.0
26/08:30pm 11.4 9.1 7.3 76 2.0 W 9 11 5 6 1025.9 1025.9 0.0
26/08:00pm 11.6 9.3 7.5 76 2.0 WSW 9 9 5 5 1025.8 1025.8 0.0
26/07:30pm 11.9 9.9 7.0 72 2.3 SSW 7 9 4 5 1025.5 1025.5 0.0
26/07:00pm 11.9 10.5 7.2 73 2.3 SSW 4 7 2 4 1025.3 1025.3 0.0
26/06:30pm 12.2 9.9 7.3 72 2.4 SSW 9 13 5 7 1025.0 1025.0 0.0
26/06:00pm 12.4 10.0 6.9 69 2.6 SSW 9 11 5 6 1024.8 1024.8 0.0
26/05:30pm 12.9 9.7 6.7 66 3.0 SSW 13 17 7 9 1024.5 1024.5 0.0
26/05:00pm 13.1 9.8 6.2 63 3.3 S 13 20 7 11 1024.3 1024.3 0.0
26/04:30pm 13.6 8.9 6.2 61 3.5 S 20 28 11 15 1024.1 1024.1 0.0
26/04:00pm 13.7 9.4 5.3 57 3.9 S 17 20 9 11 1024.0 1024.0 0.0
26/03:30pm 13.6 9.1 6.2 61 3.5 S 19 26 10 14 1024.0 1024.0 0.0
26/03:00pm 13.6 7.4 6.0 60 3.6 S 28 35 15 19 1023.8 1023.8 0.0
26/02:30pm 14.5 8.8 5.0 53 4.4 SSW 24 33 13 18 1023.4 1023.4 0.0
26/02:00pm 14.1 8.6 5.7 57 4.0 S 24 30 13 16 1023.3 1023.3 0.0
26/01:30pm 13.2 6.1 6.5 64 3.2 S 33 44 18 24 1023.3 1023.3 0.0
26/01:00pm 14.6 8.1 4.6 51 4.6 SSW 28 39 15 21 1023.2 1023.2 0.0
26/12:30pm 13.7 7.5 6.1 60 3.6 S 28 43 15 23 1023.2 1023.2 0.0
26/12:00pm 13.9 7.1 7.0 63 3.3 S 32 41 17 22 1023.3 1023.3 0.0
26/11:30am 14.6 7.8 6.9 60 3.7 S 32 43 17 23 1023.3 1023.3 0.0
26/11:18am 14.0 7.8 6.1 59 3.8 S 28 46 15 25 1023.3 1023.3 0.0
26/11:00am 13.4 6.9 6.3 62 3.4 S 30 46 16 25 1023.2 1023.2 0.0
26/10:30am 14.0 6.5 6.4 60 3.6 S 35 48 19 26 1022.8 1022.8 0.0
26/10:20am 14.1 7.7 5.2 55 4.2 S 28 46 15 25 1022.7 1022.7 0.0
26/10:00am 13.6 7.0 6.2 61 3.5 S 30 41 16 22 1022.5 1022.5 0.0
26/09:30am 13.5 7.6 5.7 59 3.7 SSW 26 35 14 19 1022.1 1022.1 0.0
26/09:00am 12.3 7.8 5.9 65 3.0 S 19 24 10 13 1022.0 1022.0 6.0
26/08:30am 12.0 5.7 5.6 65 3.0 SSW 28 41 15 22 1021.6 1021.6 6.0
26/08:00am 10.9 5.7 5.7 70 2.4 SSW 22 32 12 17 1021.1 1021.1 6.0
26/07:36am 10.3 4.0 5.9 74 2.0 SSW 28 46 15 25 1020.8 1020.8 6.0
26/07:30am 10.0 3.9 6.7 80 1.5 SSW 28 37 15 20 1020.7 1020.7 6.0
26/07:00am 10.4 4.4 5.4 71 2.3 SSW 26 43 14 23 1020.0 1020.0 6.0
26/06:30am 9.5 5.5 4.7 72 2.1 SSW 15 19 8 10 1019.6 1019.6 6.0
26/06:00am 10.1 4.3 4.3 67 2.6 SSW 24 35 13 19 1019.0 1019.0 6.0
26/05:30am 10.0 3.7 5.8 75 1.9 SSW 28 39 15 21 1018.5 1018.5 6.0
26/05:00am 10.1 2.5 4.0 66 2.7 SSW 33 54 18 29 1018.0 1018.0 6.0
26/04:45am 10.6 3.8 4.9 68 2.6 SSW 30 54 16 29 1017.8 1017.8 6.0
26/04:30am 10.4 3.8 4.1 65 2.8 SSW 28 39 15 21 1017.4 1017.4 6.0
26/04:00am 9.9 3.6 3.9 66 2.6 SSW 26 39 14 21 1017.1 1017.1 6.0
26/03:30am 9.5 3.8 6.6 82 1.3 SW 26 35 14 19 1016.7 1016.7 6.0
26/03:03am 9.6 3.0 6.0 78 1.7 SSW 30 50 16 27 1016.7 1016.7 5.8
26/03:00am 10.0 4.1 6.0 76 1.8 SSW 26 37 14 20 1016.8 1016.8 5.8
26/02:30am 9.6 2.8 6.9 83 1.3 SSW 32 44 17 24 1016.3 1016.3 5.8
26/02:02am 11.1 5.0 6.8 75 2.0 SSW 28 50 15 27 1015.7 1015.7 5.6
26/02:00am 11.1 5.8 7.0 76 2.0 SSW 24 46 13 25 1015.7 1015.7 5.6
26/01:30am 10.0 4.5 7.6 85 1.1 SW 26 37 14 20 1015.4 1015.4 5.6
26/01:27am 9.9 4.0 7.5 85 1.1 SW 28 46 15 25 1015.5 1015.5 5.6
26/01:00am 10.6 3.4 7.7 82 1.4 SSW 35 50 19 27 1014.9 1014.9 5.2
26/12:51am 10.8 4.7 8.4 85 1.2 SW 30 50 16 27 1014.9 1014.9 5.2
26/12:30am 10.8 5.4 8.2 84 1.3 SW 26 35 14 19 1014.6 1014.6 5.2
26/12:10am 11.9 5.2 7.2 73 2.3 SW 32 56 17 30 1014.4 1014.4 4.4
26/12:00am 12.2 5.2 6.9 70 2.5 SW 33 46 18 25 1014.2 1014.2 4.4
 
Date/Time
CST
Temp
°C
App
Temp
°C
Dew
Point
°C
Rel
Hum
%
Delta-T
°C
Wind Press
QNH
hPa
Press
MSL
hPa
Rain since
9am
mm
Dir  Spd
km/h
Gust
km/h
Spd
kts
Gust
kts
25/11:30pm 12.3 6.9 8.2 76 2.0 SW 26 37 14 20 1013.8 1013.8 4.4
25/11:00pm 12.5 6.6 7.4 71 2.5 SW 28 46 15 25 1013.6 1013.6 4.4
25/10:30pm 12.5 6.3 7.8 73 2.3 SW 30 52 16 28 1013.5 1013.5 4.4
25/10:23pm 12.8 7.0 7.9 72 2.4 SW 28 52 15 28 1013.5 1013.5 4.4
25/10:00pm 12.6 7.1 9.1 79 1.8 SW 28 44 15 24 1013.4 1013.4 4.4
25/09:30pm 12.7 8.1 10.9 89 0.9 SW 26 35 14 19 1013.2 1013.2 4.4
25/09:26pm 12.7 8.1 11.1 90 0.8 SW 26 35 14 19 1013.2 1013.2 4.4
25/09:00pm 13.1 9.5 12.0 93 0.6 SW 22 33 12 18 1013.0 1013.0 4.0
25/08:54pm 13.1 9.2 12.0 93 0.6 WSW 24 32 13 17 1012.9 1012.9 4.0
25/08:30pm 13.2 9.5 11.6 90 0.9 W 22 28 12 15 1012.2 1012.2 2.6
25/08:00pm 13.7 10.0 11.4 86 1.2 W 22 41 12 22 1012.5 1012.5 1.6
25/07:30pm 14.5 10.5 10.3 76 2.2 W 22 32 12 17 1012.1 1012.1 1.6
25/07:00pm 14.3 11.3 9.3 72 2.6 WNW 15 22 8 12 1012.1 1012.1 1.6
25/06:30pm 14.5 11.8 8.9 69 2.8 NW 13 17 7 9 1012.0 1012.0 1.6
25/06:00pm 14.6 11.2 9.0 69 2.9 W 17 20 9 11 1012.1 1012.1 1.6
25/05:30pm 15.1 10.3 8.8 66 3.2 WSW 24 33 13 18 1012.0 1012.0 1.6
25/05:00pm 16.1 10.9 8.8 62 3.7 W 26 41 14 22 1011.5 1011.5 1.6
25/04:30pm 16.7 13.0 11.4 71 2.9 W 22 32 12 17 1011.2 1011.2 1.6
25/04:00pm 17.1 14.1 12.6 75 2.5 W 20 28 11 15 1011.4 1011.4 1.6
25/03:30pm 17.0 14.7 12.9 77 2.3 W 17 20 9 11 1011.4 1011.4 1.6
25/03:00pm 16.3 13.9 12.8 80 1.9 WNW 17 24 9 13 1011.5 1011.5 1.6
25/02:30pm 15.5 12.3 13.2 86 1.3 WSW 22 43 12 23 1011.7 1011.7 1.6
25/02:14pm 16.4 13.7 12.9 80 1.9 WSW 19 41 10 22 1011.7 1011.7 1.6
25/02:00pm 16.0 14.3 13.7 86 1.3 W 15 20 8 11 1011.8 1011.8 1.6
25/01:45pm 15.4 14.1 13.8 90 0.9 W 13 20 7 11 1011.9 1011.9 1.6
25/01:33pm 14.7 11.1 12.9 89 1.0 W 24 35 13 19 1012.3 1012.3 1.6
25/01:32pm 14.6 10.5 12.6 88 1.1 W 26 35 14 19 1012.3 1012.3 1.6
25/01:30pm 15.1 11.6 13.5 90 0.9 W 24 35 13 19 1012.4 1012.4 1.4
25/01:18pm 15.0 11.8 13.2 89 1.0 W 22 32 12 17 1012.5 1012.5 1.2
25/01:00pm 15.8 12.0 13.6 87 1.2 W 26 39 14 21 1012.6 1012.6 0.8
25/12:30pm 18.9 15.7 11.9 64 3.9 WSW 20 30 11 16 1012.2 1012.2 0.0
25/12:00pm 18.8 15.1 12.8 68 3.4 WNW 24 30 13 16 1012.5 1012.5 0.0
25/11:30am 19.5 16.4 10.2 55 5.0 WSW 17 24 9 13 1012.8 1012.8 0.0
25/11:00am 19.4 16.2 11.2 59 4.5 WSW 19 28 10 15 1013.3 1013.3 0.0
25/10:30am 19.3 16.9 12.8 66 3.7 WSW 17 24 9 13 1013.5 1013.5 0.0

Other Formats:

Comma delimited format used in spreadsheet applications
http://www.bom.gov.au/fwo/IDS60801/IDS60801.95807.axf

JavaScript Object Notation format (JSON) in row-major order
http://www.bom.gov.au/fwo/IDS60801/IDS60801.95807.json